Time;durP1;ratioP1;P1;durP2;ratioP2;P2;SDS_P1;SDS_P2;PMS_P1;PMS_P2;Temp;Humidity;BMP_temperature;BMP_pressure;BME280_temperature;BME280_humidity;BME280_pressure;Samples;Min_cycle;Max_cycle;Signal;HPM_P1;HPM_P2
2022/08/15 00:01:39;;;;;;;3.80;3.13;;;19.00;99.90;;;;;;5092568;28;20526;-52
2022/08/15 00:04:08;;;;;;;3.30;2.87;;;19.00;99.90;;;;;;5092549;28;20462;-50
2022/08/15 00:06:40;;;;;;;3.30;3.00;;;18.90;99.90;;;;;;5092105;28;20890;-53
2022/08/15 00:09:12;;;;;;;3.67;3.10;;;19.10;99.90;;;;;;5092393;28;20443;-50
2022/08/15 00:11:41;;;;;;;3.43;3.13;;;19.10;99.90;;;;;;5092591;28;20504;-52
2022/08/15 00:14:11;;;;;;;3.77;3.47;;;18.80;99.90;;;;;;5092410;28;20462;-49
2022/08/15 00:16:41;;;;;;;3.50;3.20;;;18.90;99.90;;;;;;5092341;28;20556;-51
2022/08/15 00:19:11;;;;;;;3.37;3.07;;;18.90;99.90;;;;;;5092225;28;20489;-50
2022/08/15 00:21:44;;;;;;;3.33;3.03;;;19.10;99.90;;;;;;5092174;28;21006;-50
2022/08/15 00:24:13;;;;;;;5.40;4.00;;;18.80;99.90;;;;;;5092332;28;20497;-51
2022/08/15 00:26:40;;;;;;;4.20;3.10;;;18.90;99.90;;;;;;5091913;28;20489;-52
2022/08/15 00:29:07;;;;;;;5.20;3.70;;;19.00;99.90;;;;;;5092030;28;20448;-48
2022/08/15 00:31:35;;;;;;;3.83;3.53;;;18.70;99.90;;;;;;5092020;28;20434;-49
2022/08/15 00:34:03;;;;;;;3.97;3.57;;;18.70;99.90;;;;;;5092227;28;20459;-49
2022/08/15 00:36:30;;;;;;;4.27;3.87;;;18.60;99.90;;;;;;5092023;28;20459;-48
2022/08/15 00:38:58;;;;;;;7.10;3.70;;;18.00;99.90;;;;;;5091960;28;20758;-48
2022/08/15 00:41:41;;;;;;;4.77;3.50;;;18.10;99.90;;;;;;5091953;28;20493;-49
2022/08/15 00:44:13;;;;;;;4.00;3.70;;;18.30;99.90;;;;;;5092110;28;20462;-47
2022/08/15 00:46:43;;;;;;;6.53;3.60;;;18.50;99.90;;;;;;5091094;28;20499;-48
2022/08/15 00:49:11;;;;;;;3.50;3.20;;;18.70;99.90;;;;;;5091985;28;20546;-47
2022/08/15 00:51:43;;;;;;;3.67;2.80;;;18.70;99.90;;;;;;5091742;28;20479;-51
2022/08/15 00:54:13;;;;;;;3.90;3.53;;;18.50;99.90;;;;;;5091709;28;20447;-50
2022/08/15 00:56:46;;;;;;;3.10;2.80;;;18.50;99.90;;;;;;5091444;28;20463;-47
2022/08/15 00:59:16;;;;;;;4.47;4.03;;;18.50;99.90;;;;;;5091344;28;20538;-50
2022/08/15 01:01:46;;;;;;;4.50;3.90;;;18.50;99.90;;;;;;5091628;28;20512;-48
2022/08/15 01:04:15;;;;;;;4.63;3.87;;;18.70;99.90;;;;;;5091407;28;20434;-49
2022/08/15 01:06:43;;;;;;;3.87;3.57;;;18.70;99.90;;;;;;5090850;28;20493;-48
2022/08/15 01:09:10;;;;;;;3.47;3.17;;;18.70;99.90;;;;;;5090934;28;20435;-48
2022/08/15 01:11:41;;;;;;;3.13;2.93;;;18.60;99.90;;;;;;5091586;28;20512;-49
2022/08/15 01:14:10;;;;;;;3.60;3.30;;;18.60;99.90;;;;;;5091463;28;20459;-48
2022/08/15 01:16:39;;;;;;;4.13;3.73;;;18.70;99.90;;;;;;5090735;28;20456;-50
2022/08/15 01:19:12;;;;;;;3.50;3.10;;;18.50;99.90;;;;;;5091045;28;20478;-48
2022/08/15 01:22:01;;;;;;;4.60;3.87;;;18.50;99.90;;;;;;5091149;28;20518;-48
2022/08/15 01:24:47;;;;;;;3.93;3.10;;;18.80;99.90;;;;;;5091026;28;20769;-50
2022/08/15 01:27:16;;;;;;;4.10;3.70;;;18.90;99.90;;;;;;5090849;28;20574;-48
2022/08/15 01:29:44;;;;;;;4.13;3.43;;;18.90;99.90;;;;;;5091005;28;20501;-49
2022/08/15 01:32:11;;;;;;;3.47;3.17;;;18.80;99.90;;;;;;5090950;28;20516;-49
2022/08/15 01:34:38;;;;;;;4.73;3.83;;;18.80;99.90;;;;;;5091115;28;20614;-47
2022/08/15 01:37:05;;;;;;;3.70;3.40;;;18.70;99.90;;;;;;5090834;28;20525;-48
2022/08/15 01:39:45;;;;;;;6.53;3.73;;;18.60;99.90;;;;;;5090716;28;20500;-48
2022/08/15 01:42:18;;;;;;;3.47;3.17;;;18.50;99.90;;;;;;5090694;28;20974;-48
2022/08/15 01:44:48;;;;;;;3.80;3.40;;;18.70;99.90;;;;;;5090589;28;20436;-48
2022/08/15 01:47:19;;;;;;;4.50;2.67;;;18.70;99.90;;;;;;5090502;28;20499;-51
2022/08/15 01:49:52;;;;;;;3.30;3.00;;;18.60;99.90;;;;;;5090527;28;20952;-48
2022/08/15 01:52:21;;;;;;;4.00;3.60;;;18.40;99.90;;;;;;5090677;28;20440;-47
2022/08/15 01:54:51;;;;;;;5.77;3.10;;;18.40;99.90;;;;;;5090502;28;20995;-48
2022/08/15 01:57:19;;;;;;;3.80;3.43;;;18.30;99.90;;;;;;5089509;28;20494;-47
2022/08/15 01:59:55;;;;;;;3.80;3.50;;;18.20;99.90;;;;;;5090068;28;20707;-48
2022/08/15 02:02:22;;;;;;;4.33;3.57;;;18.40;99.90;;;;;;5090393;28;20544;-51
2022/08/15 02:04:50;;;;;;;3.43;3.17;;;18.20;99.90;;;;;;5090479;28;20455;-47
2022/08/15 02:07:20;;;;;;;5.57;3.70;;;18.20;99.90;;;;;;5089711;28;20471;-49
2022/08/15 02:09:49;;;;;;;3.80;3.50;;;18.20;99.90;;;;;;5090118;28;20444;-51
2022/08/15 02:12:20;;;;;;;3.33;3.03;;;18.10;99.90;;;;;;5090190;28;20512;-50
2022/08/15 02:14:47;;;;;;;3.80;3.50;;;18.30;99.90;;;;;;5090229;28;20587;-50
2022/08/15 02:17:16;;;;;;;5.20;3.80;;;18.40;99.90;;;;;;5089980;28;20847;-48
2022/08/15 02:19:48;;;;;;;5.10;3.40;;;18.30;99.90;;;;;;5089637;28;20454;-47
2022/08/15 02:22:16;;;;;;;3.30;3.00;;;18.30;99.90;;;;;;5090055;28;20530;-49
2022/08/15 02:24:43;;;;;;;3.43;3.13;;;18.20;99.90;;;;;;5090034;28;20443;-47
2022/08/15 02:27:12;;;;;;;3.80;3.50;;;18.20;99.90;;;;;;5089579;28;20533;-48
2022/08/15 02:29:41;;;;;;;3.13;2.83;;;18.40;99.90;;;;;;5089683;28;20451;-49
2022/08/15 02:32:11;;;;;;;3.60;3.30;;;18.30;99.90;;;;;;5090243;28;20504;-47
2022/08/15 02:34:38;;;;;;;3.37;3.10;;;18.40;99.90;;;;;;5089832;28;20432;-49
2022/08/15 02:37:07;;;;;;;3.73;3.43;;;18.50;99.90;;;;;;5089752;28;20456;-48
2022/08/15 02:39:34;;;;;;;3.30;3.10;;;18.40;99.90;;;;;;5089530;28;20451;-47
2022/08/15 02:42:01;;;;;;;3.53;3.23;;;18.00;99.90;;;;;;5089684;28;20440;-49
2022/08/15 02:44:30;;;;;;;4.90;3.40;;;18.20;99.90;;;;;;5089687;28;20451;-48
2022/08/15 02:46:59;;;;;;;4.60;3.53;;;18.20;99.90;;;;;;5089427;28;20483;-48
2022/08/15 02:49:26;;;;;;;3.90;3.60;;;18.10;99.90;;;;;;5089496;28;20444;-49
2022/08/15 02:51:54;;;;;;;2.93;2.67;;;18.10;99.90;;;;;;5089392;28;20535;-52
2022/08/15 02:54:26;;;;;;;3.90;3.60;;;18.20;99.90;;;;;;5089451;28;20439;-50
2022/08/15 02:56:53;;;;;;;4.20;3.90;;;18.10;99.90;;;;;;5089174;28;20900;-50
2022/08/15 02:59:21;;;;;;;4.50;4.10;;;18.00;99.90;;;;;;5089327;28;20455;-50
2022/08/15 03:01:50;;;;;;;3.90;3.60;;;18.10;99.90;;;;;;5089264;28;20860;-52
2022/08/15 03:04:20;;;;;;;3.90;3.60;;;18.10;99.90;;;;;;5089458;28;20448;-49
2022/08/15 03:06:48;;;;;;;3.90;3.13;;;17.80;99.90;;;;;;5088924;28;20506;-50
2022/08/15 03:09:16;;;;;;;4.17;3.27;;;17.50;99.90;;;;;;5088779;28;20436;-51
2022/08/15 03:11:45;;;;;;;5.33;3.33;;;17.70;99.90;;;;;;5089233;28;20447;-50
2022/08/15 03:14:14;;;;;;;4.10;3.60;;;17.80;99.90;;;;;;5089358;28;20532;-52
2022/08/15 03:16:44;;;;;;;4.40;3.77;;;17.70;99.90;;;;;;5088902;28;20943;-51
2022/08/15 03:19:16;;;;;;;3.47;3.17;;;17.90;99.90;;;;;;5089073;28;20427;-50
2022/08/15 03:21:43;;;;;;;3.70;3.40;;;18.00;99.90;;;;;;5089147;28;20713;-51
2022/08/15 03:24:10;;;;;;;4.30;4.00;;;18.10;99.90;;;;;;5089170;28;20562;-50
2022/08/15 03:26:38;;;;;;;3.60;3.30;;;18.00;99.90;;;;;;5145685;22;20574;-51
2022/08/15 03:29:06;;;;;;;4.10;3.67;;;17.80;99.90;;;;;;5088742;28;20522;-49
2022/08/15 03:31:34;;;;;;;3.90;3.60;;;17.80;99.90;;;;;;5089263;28;20552;-49
2022/08/15 03:34:01;;;;;;;4.40;3.47;;;17.70;99.90;;;;;;5089448;28;20976;-49
2022/08/15 03:36:30;;;;;;;5.43;4.00;;;17.70;99.90;;;;;;5089002;28;20463;-49
2022/08/15 03:38:57;;;;;;;3.63;3.33;;;17.70;99.90;;;;;;5089217;28;20651;-49
2022/08/15 03:41:24;;;;;;;4.70;3.83;;;17.80;99.90;;;;;;5089242;28;20997;-49
2022/08/15 03:43:52;;;;;;;4.17;3.73;;;17.80;99.90;;;;;;5089276;28;20493;-49
2022/08/15 03:46:20;;;;;;;8.90;4.23;;;17.90;99.90;;;;;;5089237;28;20478;-50
2022/08/15 03:48:50;;;;;;;4.50;4.10;;;17.90;99.90;;;;;;5088737;28;20841;-49
2022/08/15 03:51:19;;;;;;;4.30;3.90;;;17.60;99.90;;;;;;5089025;28;20455;-49
2022/08/15 03:53:49;;;;;;;4.90;4.50;;;17.40;99.90;;;;;;5088891;28;20891;-48
2022/08/15 03:56:20;;;;;;;4.63;4.17;;;17.20;99.90;;;;;;5089057;28;20451;-49
2022/08/15 03:58:49;;;;;;;5.23;4.07;;;17.30;99.90;;;;;;5088914;28;20455;-48
2022/08/15 04:01:19;;;;;;;4.17;3.83;;;17.20;99.90;;;;;;5088988;28;20452;-49
2022/08/15 04:03:47;;;;;;;3.90;3.50;;;17.10;99.90;;;;;;5089077;28;20467;-50
2022/08/15 04:06:18;;;;;;;5.87;4.13;;;16.60;99.90;;;;;;5088769;28;20436;-50
2022/08/15 04:08:48;;;;;;;3.90;3.37;;;16.90;99.90;;;;;;5088770;28;21003;-48
2022/08/15 04:11:17;;;;;;;4.57;4.17;;;17.30;99.90;;;;;;5088955;28;20455;-49
2022/08/15 04:13:45;;;;;;;4.17;3.40;;;16.90;99.90;;;;;;5088977;28;20498;-49
2022/08/15 04:16:13;;;;;;;4.10;3.67;;;17.10;99.90;;;;;;5088667;28;20447;-49
2022/08/15 04:18:41;;;;;;;4.07;3.67;;;17.20;99.90;;;;;;5088759;28;20745;-47
2022/08/15 04:21:12;;;;;;;3.97;3.67;;;17.30;99.90;;;;;;5089918;28;20550;-49
2022/08/15 04:23:41;;;;;;;4.30;3.90;;;17.40;99.90;;;;;;5093105;28;20451;-49
2022/08/15 04:26:09;;;;;;;5.00;3.60;;;17.20;99.90;;;;;;5092274;28;20879;-49
2022/08/15 04:28:36;;;;;;;4.17;3.87;;;17.20;99.90;;;;;;5092432;28;20467;-49
2022/08/15 04:31:05;;;;;;;4.20;3.80;;;17.40;99.90;;;;;;5092337;28;20447;-51
2022/08/15 04:33:34;;;;;;;4.40;4.00;;;16.80;99.90;;;;;;5092487;28;20520;-49
2022/08/15 04:36:05;;;;;;;5.00;4.60;;;16.60;99.90;;;;;;5092303;28;20447;-49
2022/08/15 04:38:32;;;;;;;4.00;3.70;;;16.70;99.90;;;;;;5092230;28;20524;-49
2022/08/15 04:41:01;;;;;;;4.40;4.00;;;17.10;99.90;;;;;;5091957;28;20912;-49
2022/08/15 04:43:31;;;;;;;3.90;3.60;;;17.10;99.90;;;;;;5092165;28;20510;-50
2022/08/15 04:45:59;;;;;;;4.70;4.30;;;17.00;99.90;;;;;;5091951;28;20428;-48
2022/08/15 04:48:26;;;;;;;5.50;4.60;;;17.00;99.90;;;;;;5091944;28;20980;-49
2022/08/15 04:50:55;;;;;;;5.80;4.63;;;16.80;99.90;;;;;;5091812;28;20467;-48
2022/08/15 04:53:25;;;;;;;4.67;3.80;;;16.50;99.90;;;;;;5091901;28;20497;-49
2022/08/15 04:55:53;;;;;;;4.77;4.37;;;16.70;99.90;;;;;;5091810;28;20453;-49
2022/08/15 04:58:20;;;;;;;5.07;3.93;;;17.00;99.90;;;;;;5092122;28;20455;-49
2022/08/15 05:00:56;;;;;;;4.60;4.17;;;17.30;99.90;;;;;;5091634;28;20508;-51
2022/08/15 05:03:24;;;;;;;5.13;4.63;;;17.50;99.90;;;;;;5091854;28;20447;-49
2022/08/15 05:05:54;;;;;;;3.87;3.50;;;17.70;99.90;;;;;;5091579;28;20803;-49
2022/08/15 05:08:25;;;;;;;4.40;4.00;;;17.50;99.90;;;;;;5091543;28;20471;-49
2022/08/15 05:10:56;;;;;;;4.23;3.93;;;17.60;99.90;;;;;;5091653;28;20885;-48
2022/08/15 05:13:26;;;;;;;4.50;4.10;;;17.50;99.90;;;;;;5091423;28;20439;-49
2022/08/15 05:15:55;;;;;;;3.90;3.50;;;17.40;99.90;;;;;;5091635;28;20516;-49
2022/08/15 05:18:23;;;;;;;4.70;4.30;;;17.50;99.90;;;;;;5091415;28;20442;-50
2022/08/15 05:20:51;;;;;;;4.70;4.30;;;17.50;99.90;;;;;;5091276;28;20454;-49
2022/08/15 05:23:20;;;;;;;3.93;3.43;;;17.50;99.90;;;;;;5091395;28;20506;-49
2022/08/15 05:25:51;;;;;;;5.47;4.97;;;17.60;99.90;;;;;;5091185;28;20794;-49
2022/08/15 05:28:18;;;;;;;5.20;4.80;;;17.70;99.90;;;;;;5091053;28;20977;-49
2022/08/15 05:30:45;;;;;;;6.43;5.83;;;17.70;99.90;;;;;;5091003;28;20439;-49
2022/08/15 05:33:16;;;;;;;8.13;6.37;;;17.60;99.90;;;;;;5091259;28;20440;-49
2022/08/15 05:35:46;;;;;;;6.23;5.67;;;17.50;99.90;;;;;;5091311;28;20506;-48
2022/08/15 05:38:17;;;;;;;6.50;5.90;;;17.60;99.90;;;;;;5091031;28;20463;-48
2022/08/15 05:40:53;;;;;;;6.17;5.57;;;17.30;99.90;;;;;;5090862;28;20455;-50
2022/08/15 05:43:32;;;;;;;5.70;5.10;;;17.10;99.90;;;;;;5091247;28;20886;-49
2022/08/15 05:46:05;;;;;;;5.17;4.67;;;17.30;99.90;;;;;;5091065;28;20493;-49
2022/08/15 05:48:34;;;;;;;6.50;4.50;;;17.30;99.90;;;;;;5090784;28;20487;-52
2022/08/15 05:51:12;;;;;;;5.00;4.50;;;17.50;99.90;;;;;;5090726;28;20941;-49
2022/08/15 05:53:54;;;;;;;5.43;4.93;;;17.70;99.90;;;;;;5090722;28;20983;-48
2022/08/15 05:56:31;;;;;;;6.07;5.57;;;17.90;99.90;;;;;;5090653;28;20456;-49
2022/08/15 05:59:02;;;;;;;5.47;5.07;;;18.10;99.90;;;;;;5090686;28;20451;-49
2022/08/15 06:01:33;;;;;;;6.10;5.57;;;18.30;99.90;;;;;;5090732;28;20556;-49
2022/08/15 06:04:08;;;;;;;7.00;6.30;;;18.40;99.90;;;;;;5090703;28;20431;-49
2022/08/15 06:06:38;;;;;;;6.00;5.40;;;18.40;99.90;;;;;;5090375;28;20451;-49
2022/08/15 06:09:20;;;;;;;6.00;5.50;;;18.40;99.90;;;;;;5090281;28;20463;-49
2022/08/15 06:11:48;;;;;;;6.93;6.23;;;18.50;99.90;;;;;;5090697;28;20520;-49
2022/08/15 06:14:24;;;;;;;6.10;5.60;;;18.40;99.90;;;;;;5090642;28;20493;-49
2022/08/15 06:16:56;;;;;;;6.67;6.07;;;17.90;99.90;;;;;;5090300;28;20455;-49
2022/08/15 06:19:29;;;;;;;5.80;5.30;;;17.90;99.90;;;;;;5090267;28;20435;-49
2022/08/15 06:22:07;;;;;;;6.80;6.10;;;18.20;99.90;;;;;;5090421;28;20443;-49
2022/08/15 06:24:39;;;;;;;5.70;5.20;;;18.30;99.90;;;;;;5090437;28;20916;-49
2022/08/15 06:27:12;;;;;;;6.70;6.03;;;18.30;99.90;;;;;;5090301;28;20544;-50
2022/08/15 06:29:53;;;;;;;6.57;5.97;;;18.40;99.90;;;;;;5090048;28;20482;-50
2022/08/15 06:32:31;;;;;;;6.60;5.60;;;18.30;99.90;;;;;;5090345;28;20444;-49
2022/08/15 06:35:05;;;;;;;6.90;6.17;;;18.50;99.90;;;;;;5090388;28;20451;-49
2022/08/15 06:37:37;;;;;;;6.00;5.37;;;18.70;99.90;;;;;;5090175;28;20463;-49
2022/08/15 06:40:15;;;;;;;9.23;6.60;;;18.90;99.90;;;;;;5090010;28;20454;-49
2022/08/15 06:42:44;;;;;;;6.57;5.87;;;19.00;99.90;;;;;;5090171;28;20850;-50
2022/08/15 06:45:17;;;;;;;7.07;6.47;;;18.80;99.90;;;;;;5089634;28;20444;-51
2022/08/15 06:47:46;;;;;;;7.13;6.43;;;18.90;99.90;;;;;;5090039;28;20467;-49
2022/08/15 06:50:19;;;;;;;6.80;6.10;;;19.00;99.90;;;;;;5089660;28;20457;-48
2022/08/15 06:52:52;;;;;;;8.37;7.40;;;19.20;99.90;;;;;;5089973;28;20493;-49
2022/08/15 06:55:21;;;;;;;15.60;7.40;;;18.70;99.90;;;;;;5089822;28;20431;-49
2022/08/15 06:57:58;;;;;;;7.23;6.53;;;18.50;99.90;;;;;;5089805;28;20455;-49
2022/08/15 07:00:35;;;;;;;6.53;5.93;;;18.70;99.90;;;;;;5089716;28;20528;-49
2022/08/15 07:03:12;;;;;;;6.87;6.27;;;19.00;99.90;;;;;;5089825;28;20447;-50
2022/08/15 07:05:48;;;;;;;7.23;5.70;;;19.20;99.90;;;;;;5089594;28;20423;-47
2022/08/15 07:08:33;;;;;;;5.80;5.30;;;19.40;99.90;;;;;;5089584;28;20470;-51
2022/08/15 07:11:09;;;;;;;5.90;5.30;;;19.10;99.90;;;;;;5089465;28;20696;-49
2022/08/15 07:13:46;;;;;;;5.20;4.70;;;19.00;99.90;;;;;;5089663;28;21014;-51
2022/08/15 07:16:20;;;;;;;5.60;5.10;;;19.10;99.90;;;;;;5089530;28;20990;-50
2022/08/15 07:18:51;;;;;;;4.97;4.57;;;19.00;99.90;;;;;;5089416;28;20467;-49
2022/08/15 07:21:25;;;;;;;5.13;4.47;;;19.30;99.90;;;;;;5089527;28;20492;-50
2022/08/15 07:24:05;;;;;;;5.00;4.60;;;19.70;99.90;;;;;;5089440;28;20477;-50
2022/08/15 07:26:41;;;;;;;5.03;4.60;;;19.90;99.90;;;;;;5089322;28;20467;-50
2022/08/15 07:29:12;;;;;;;5.30;4.77;;;20.10;99.90;;;;;;5089064;28;20506;-48
2022/08/15 07:31:39;;;;;;;4.63;4.23;;;20.10;99.90;;;;;;5089259;28;20934;-49
2022/08/15 07:34:17;;;;;;;5.33;4.73;;;20.20;99.90;;;;;;5089275;28;20444;-49
2022/08/15 07:36:57;;;;;;;6.17;5.77;;;20.20;99.90;;;;;;5089206;28;20545;-49
2022/08/15 07:39:28;;;;;;;5.60;5.10;;;20.30;99.90;;;;;;5089204;28;20466;-50
2022/08/15 07:41:55;;;;;;;5.00;4.60;;;20.10;99.90;;;;;;5089225;28;20443;-49
2022/08/15 07:44:26;;;;;;;4.90;4.50;;;19.80;99.90;;;;;;5089139;28;20443;-50
2022/08/15 07:46:59;;;;;;;5.67;5.17;;;19.80;99.90;;;;;;5089110;28;20657;-49
2022/08/15 07:49:28;;;;;;;5.50;5.00;;;19.70;99.90;;;;;;5088792;28;20988;-49
2022/08/15 07:52:04;;;;;;;5.40;4.90;;;19.80;99.90;;;;;;5089374;28;20428;-51
2022/08/15 07:54:33;;;;;;;5.37;4.90;;;20.00;99.90;;;;;;5089008;28;20850;-49
2022/08/15 07:57:06;;;;;;;5.40;4.90;;;20.10;99.90;;;;;;5091147;28;20451;-49
2022/08/15 07:59:36;;;;;;;6.10;5.60;;;20.30;99.90;;;;;;5092713;28;20889;-50
2022/08/15 08:02:08;;;;;;;10.60;5.73;;;20.40;99.90;;;;;;5093166;28;20535;-50
2022/08/15 08:04:35;;;;;;;9.40;5.40;;;20.40;99.90;;;;;;5092975;28;20447;-50
2022/08/15 08:07:18;;;;;;;5.90;5.40;;;20.50;99.90;;;;;;5092407;28;20481;-50
2022/08/15 08:09:52;;;;;;;5.40;5.00;;;20.40;99.90;;;;;;5092780;28;20557;-50
2022/08/15 08:12:30;;;;;;;6.10;5.60;;;20.60;99.90;;;;;;5092952;28;20439;-49
2022/08/15 08:15:05;;;;;;;6.70;5.70;;;20.70;99.90;;;;;;5092794;28;20466;-50
2022/08/15 08:17:38;;;;;;;5.97;5.47;;;20.90;99.90;;;;;;5092447;28;20466;-49
2022/08/15 08:20:13;;;;;;;6.03;5.43;;;21.10;99.90;;;;;;5092603;28;20467;-49
2022/08/15 08:22:51;;;;;;;6.10;5.60;;;21.10;99.90;;;;;;5092811;28;20457;-49
2022/08/15 08:25:27;;;;;;;6.00;5.50;;;21.30;99.90;;;;;;5092529;28;20900;-49
2022/08/15 08:28:06;;;;;;;5.80;5.30;;;21.30;99.90;;;;;;5092367;28;20471;-50
2022/08/15 08:30:39;;;;;;;5.97;5.43;;;21.20;99.90;;;;;;5092260;28;20559;-49
2022/08/15 08:33:18;;;;;;;5.60;5.20;;;20.90;99.90;;;;;;5092574;28;20447;-50
2022/08/15 08:35:52;;;;;;;5.60;5.10;;;21.10;99.90;;;;;;5092594;28;20466;-49
2022/08/15 08:38:36;;;;;;;6.23;5.67;;;21.00;99.90;;;;;;5092201;28;20570;-49
2022/08/15 08:41:29;;;;;;;5.97;5.47;;;21.30;99.90;;;;;;5092125;28;20451;-49
2022/08/15 08:44:11;;;;;;;5.60;5.10;;;21.30;99.90;;;;;;5092235;28;20431;-50
2022/08/15 08:46:59;;;;;;;5.70;5.20;;;21.40;99.90;;;;;;5092088;28;20463;-49
2022/08/15 08:49:38;;;;;;;5.87;5.37;;;21.70;99.90;;;;;;5091808;28;21085;-49
2022/08/15 08:52:15;;;;;;;6.13;5.50;;;21.90;99.90;;;;;;5092103;28;20538;-49
2022/08/15 08:55:00;;;;;;;6.10;5.60;;;21.40;99.90;;;;;;5092035;28;20916;-49
2022/08/15 08:57:32;;;;;;;5.90;5.30;;;21.30;99.90;;;;;;5091826;28;20491;-49
2022/08/15 09:00:04;;;;;;;5.90;5.40;;;21.10;99.90;;;;;;5091458;28;20847;-49
2022/08/15 09:02:36;;;;;;;6.17;5.67;;;21.30;99.90;;;;;;5091827;28;20432;-49
2022/08/15 09:05:09;;;;;;;6.10;5.60;;;21.40;99.90;;;;;;5091478;28;20447;-50
2022/08/15 09:07:44;;;;;;;7.10;6.40;;;21.70;99.90;;;;;;5091439;28;20525;-50
2022/08/15 09:10:21;;;;;;;5.43;5.00;;;21.80;99.90;;;;;;5091675;28;20479;-49
2022/08/15 09:15:39;;;;;;;6.60;5.90;;;21.70;99.90;;;;;;5091565;28;20426;-49
2022/08/15 09:18:09;;;;;;;6.57;5.30;;;21.80;99.90;;;;;;5091688;28;20540;-49
2022/08/15 09:20:39;;;;;;;5.37;4.97;;;21.90;99.90;;;;;;5091382;28;20477;-49
2022/08/15 09:23:10;;;;;;;5.10;4.60;;;22.30;99.90;;;;;;5091437;28;20432;-49
2022/08/15 09:25:46;;;;;;;4.87;4.47;;;22.50;99.90;;;;;;5091523;28;20463;-49
2022/08/15 09:28:19;;;;;;;6.40;5.80;;;22.30;99.90;;;;;;5092619;28;20475;-49
2022/08/15 09:30:48;;;;;;;5.77;5.27;;;22.40;99.90;;;;;;5091108;28;20428;-51
2022/08/15 09:33:41;;;;;;;5.47;5.00;;;22.50;99.90;;;;;;5091268;28;20495;-50
2022/08/15 09:36:37;;;;;;;5.77;5.27;;;22.30;99.90;;;;;;5091140;28;20448;-49
2022/08/15 09:39:26;;;;;;;5.23;4.83;;;22.20;99.90;;;;;;5089138;28;20454;-49
2022/08/15 09:42:15;;;;;;;5.57;5.17;;;21.90;99.90;;;;;;5091055;28;20839;-49
2022/08/15 09:45:01;;;;;;;5.63;5.20;;;21.80;99.90;;;;;;5090929;28;20602;-49
2022/08/15 09:47:53;;;;;;;5.90;5.30;;;21.90;99.90;;;;;;5091271;28;20546;-48
2022/08/15 09:50:41;;;;;;;5.70;5.20;;;21.80;99.90;;;;;;5090405;28;20511;-49
2022/08/15 09:53:22;;;;;;;4.93;4.53;;;21.80;99.90;;;;;;5071612;28;20467;-49
2022/08/15 09:55:51;;;;;;;5.87;5.37;;;21.70;99.90;;;;;;5070394;28;20456;-50
2022/08/15 09:58:25;;;;;;;5.30;4.80;;;21.80;99.90;;;;;;5070008;28;20444;-49
2022/08/15 10:01:07;;;;;;;5.67;5.17;;;21.80;99.90;;;;;;5070254;28;20449;-49
2022/08/15 10:03:57;;;;;;;9.70;5.57;;;21.60;99.90;;;;;;5070556;28;20505;-49
2022/08/15 10:06:27;;;;;;;5.37;4.83;;;21.60;99.90;;;;;;5069764;28;20529;-49
2022/08/15 10:09:14;;;;;;;5.73;5.23;;;21.70;99.90;;;;;;5069804;28;20541;-50
2022/08/15 10:12:29;;;;;;;5.90;5.13;;;21.60;99.90;;;;;;5069867;28;20530;-49
2022/08/15 10:15:05;;;;;;;6.73;6.00;;;21.70;99.90;;;;;;4988641;28;20448;-49
2022/08/15 10:17:42;;;;;;;5.73;5.23;;;21.60;99.90;;;;;;5065132;28;20468;-49
2022/08/15 10:21:01;;;;;;;5.70;5.20;;;21.70;99.90;;;;;;5069059;28;20905;-49
2022/08/15 10:23:32;;;;;;;6.63;5.77;;;21.70;99.90;;;;;;5070123;28;20531;-49
2022/08/15 10:26:15;;;;;;;6.40;5.80;;;21.60;99.90;;;;;;5070486;28;20509;-50
2022/08/15 10:28:59;;;;;;;6.80;6.20;;;21.60;99.90;;;;;;5069791;28;20480;-49
2022/08/15 10:31:31;;;;;;;8.37;7.17;;;21.70;99.90;;;;;;5069988;28;20437;-49
2022/08/15 10:34:00;;;;;;;6.70;5.80;;;21.70;99.90;;;;;;5069631;28;20488;-50
2022/08/15 10:36:34;;;;;;;7.40;6.80;;;21.70;99.90;;;;;;5069638;28;20467;-50
2022/08/15 10:39:24;;;;;;;6.23;5.73;;;21.80;99.90;;;;;;5070162;28;20433;-50
2022/08/15 10:42:09;;;;;;;6.63;6.03;;;21.80;99.90;;;;;;5069656;28;20538;-49
2022/08/15 10:44:50;;;;;;;7.07;6.47;;;21.80;99.90;;;;;;5069562;28;20963;-50
2022/08/15 10:47:26;;;;;;;7.13;6.53;;;21.70;99.90;;;;;;5069722;28;20476;-50
2022/08/15 10:50:06;;;;;;;7.50;6.90;;;21.60;99.90;;;;;;5069604;28;20504;-49
2022/08/15 10:52:42;;;;;;;6.77;6.17;;;21.70;99.90;;;;;;5069576;28;20425;-49
2022/08/15 10:55:25;;;;;;;7.40;6.80;;;21.90;99.90;;;;;;5069551;28;20549;-50
2022/08/15 10:57:58;;;;;;;7.80;6.27;;;22.10;99.90;;;;;;5069620;28;20472;-50
2022/08/15 11:00:41;;;;;;;6.07;5.57;;;22.20;99.90;;;;;;5069330;28;20439;-50
2022/08/15 11:03:18;;;;;;;6.43;5.93;;;22.10;99.90;;;;;;5069539;28;20444;-50
2022/08/15 11:05:59;;;;;;;7.13;6.53;;;22.00;99.90;;;;;;5069435;28;20881;-49
2022/08/15 11:08:26;;;;;;;6.67;6.17;;;22.20;99.90;;;;;;5069858;28;20509;-49
2022/08/15 11:10:59;;;;;;;7.70;6.30;;;22.30;99.90;;;;;;5069059;28;20475;-50
2022/08/15 11:13:31;;;;;;;6.37;5.87;;;22.30;99.90;;;;;;5069192;28;20847;-50
2022/08/15 11:16:09;;;;;;;6.03;5.60;;;22.30;99.90;;;;;;5069253;28;20482;-49
2022/08/15 11:18:45;;;;;;;6.67;6.07;;;22.30;99.90;;;;;;5069447;28;20452;-49
2022/08/15 11:21:22;;;;;;;7.37;6.67;;;21.70;99.90;;;;;;5069312;28;20455;-49
2022/08/15 11:23:54;;;;;;;7.47;6.87;;;22.00;99.90;;;;;;5070016;28;20448;-50
2022/08/15 11:26:28;;;;;;;6.60;6.00;;;22.10;99.90;;;;;;5069539;28;20535;-49
2022/08/15 11:29:23;;;;;;;6.07;5.57;;;22.30;99.90;;;;;;5069190;28;20552;-49
2022/08/15 11:31:53;;;;;;;7.10;6.50;;;22.70;99.90;;;;;;5073544;28;20436;-49
2022/08/15 11:34:27;;;;;;;6.50;6.00;;;23.00;99.90;;;;;;5073776;28;20463;-51
2022/08/15 11:36:59;;;;;;;6.90;6.30;;;23.10;99.90;;;;;;5073705;28;20452;-50
2022/08/15 11:39:30;;;;;;;6.40;5.90;;;23.10;99.90;;;;;;5072996;28;20445;-50
2022/08/15 11:42:01;;;;;;;5.93;5.00;;;23.40;99.90;;;;;;5073186;28;20493;-49
2022/08/15 11:44:39;;;;;;;6.00;5.50;;;23.30;99.90;;;;;;5073905;28;20661;-50
2022/08/15 11:47:11;;;;;;;5.93;5.43;;;23.40;99.90;;;;;;5074337;28;20521;-50
2022/08/15 11:49:48;;;;;;;5.63;4.93;;;23.40;99.90;;;;;;5080831;28;20468;-50
2022/08/15 11:52:23;;;;;;;5.20;4.70;;;23.40;99.90;;;;;;5073199;28;20435;-50
2022/08/15 11:55:23;;;;;;;8.00;5.80;;;23.40;99.90;;;;;;5073252;28;20455;-50
2022/08/15 11:57:52;;;;;;;4.90;4.50;;;23.40;99.90;;;;;;5072877;28;20457;-49
2022/08/15 12:00:26;;;;;;;4.53;4.13;;;23.60;99.90;;;;;;5072818;28;20914;-50
2022/08/15 12:02:53;;;;;;;4.80;4.40;;;23.50;99.70;;;;;;5073105;28;20925;-49
2022/08/15 12:05:30;;;;;;;4.90;4.40;;;23.50;99.90;;;;;;5072558;28;20444;-49
2022/08/15 12:08:01;;;;;;;5.20;4.40;;;23.50;99.90;;;;;;5073064;28;20754;-50
2022/08/15 12:10:32;;;;;;;4.10;3.80;;;23.40;99.90;;;;;;5072641;28;20468;-49
2022/08/15 12:13:00;;;;;;;5.07;4.57;;;23.50;98.80;;;;;;5073181;28;20440;-49
2022/08/15 12:15:40;;;;;;;4.20;3.80;;;23.50;99.90;;;;;;5072502;28;20452;-49
2022/08/15 12:18:13;;;;;;;4.20;3.80;;;23.30;99.70;;;;;;5072705;28;21052;-49
2022/08/15 12:20:47;;;;;;;4.20;3.57;;;23.30;99.90;;;;;;5072617;28;20467;-49
2022/08/15 12:23:36;;;;;;;4.70;3.93;;;23.20;99.80;;;;;;5072735;28;20475;-50
2022/08/15 12:26:05;;;;;;;4.63;4.23;;;23.20;98.10;;;;;;5072795;28;20560;-50
2022/08/15 12:28:34;;;;;;;7.03;3.90;;;23.20;98.90;;;;;;5072730;28;20501;-49
2022/08/15 12:31:05;;;;;;;3.63;3.33;;;22.90;97.20;;;;;;5072341;28;20480;-50
2022/08/15 12:33:32;;;;;;;3.23;2.93;;;22.80;97.00;;;;;;5072647;28;20527;-52
2022/08/15 12:36:02;;;;;;;3.33;3.03;;;22.80;96.60;;;;;;5072511;28;20452;-49
2022/08/15 12:38:29;;;;;;;3.43;3.13;;;22.80;95.90;;;;;;5072458;28;20527;-49
2022/08/15 12:40:56;;;;;;;3.83;3.50;;;22.90;95.60;;;;;;5072601;28;20476;-49
2022/08/15 12:43:23;;;;;;;4.43;2.90;;;22.90;96.20;;;;;;5072064;28;20848;-49
2022/08/15 12:45:51;;;;;;;5.70;3.50;;;22.90;97.00;;;;;;5072495;28;20949;-49
2022/08/15 12:48:23;;;;;;;6.67;4.23;;;22.80;98.60;;;;;;5072299;28;20548;-49
2022/08/15 12:50:51;;;;;;;5.60;4.80;;;22.80;99.90;;;;;;5072198;28;20483;-52
2022/08/15 12:53:19;;;;;;;4.47;4.07;;;22.60;99.90;;;;;;5072461;28;20506;-50
2022/08/15 12:55:48;;;;;;;7.33;4.60;;;22.60;99.90;;;;;;5072032;28;20472;-50
2022/08/15 12:58:17;;;;;;;5.73;5.20;;;22.50;99.90;;;;;;5071192;28;20514;-50
2022/08/15 13:00:46;;;;;;;6.13;4.77;;;22.50;99.90;;;;;;5072045;28;20786;-48
2022/08/15 13:03:16;;;;;;;5.53;4.50;;;22.40;99.90;;;;;;5071988;28;20433;-52
2022/08/15 13:05:44;;;;;;;4.50;4.10;;;22.50;99.90;;;;;;5071518;28;20515;-50
2022/08/15 13:08:12;;;;;;;11.87;6.20;;;22.50;99.90;;;;;;5071856;28;20472;-49
2022/08/15 13:10:40;;;;;;;8.00;6.27;;;21.90;99.90;;;;;;5071649;28;20886;-49
2022/08/15 13:13:07;;;;;;;6.63;6.00;;;21.50;99.90;;;;;;5072244;28;20429;-50
2022/08/15 13:15:35;;;;;;;7.13;5.13;;;21.60;99.90;;;;;;5071454;28;21008;-49
2022/08/15 13:18:03;;;;;;;7.23;5.97;;;21.70;99.90;;;;;;5071653;28;20832;-49